sensor_id;sensor_type;location;lat;lon;timestamp;P1;durP1;ratioP1;P2;durP2;ratioP2
66603;SDS011;53460;39.612;8.822;2023-05-07T00:02:24;1.98;;;1.88;;
66603;SDS011;53460;39.612;8.822;2023-05-07T00:04:50;2.42;;;2.17;;
66603;SDS011;53460;39.612;8.822;2023-05-07T00:07:17;1.85;;;1.67;;
66603;SDS011;53460;39.612;8.822;2023-05-07T00:09:43;6.53;;;1.92;;
66603;SDS011;53460;39.612;8.822;2023-05-07T00:12:09;2.22;;;2.03;;
66603;SDS011;53460;39.612;8.822;2023-05-07T00:14:34;4.07;;;1.85;;
66603;SDS011;53460;39.612;8.822;2023-05-07T00:17:00;2.03;;;1.77;;
66603;SDS011;53460;39.612;8.822;2023-05-07T00:19:26;6.10;;;1.90;;
66603;SDS011;53460;39.612;8.822;2023-05-07T00:21:52;3.38;;;1.88;;
66603;SDS011;53460;39.612;8.822;2023-05-07T00:24:19;2.58;;;1.88;;
66603;SDS011;53460;39.612;8.822;2023-05-07T00:26:45;2.45;;;1.95;;
66603;SDS011;53460;39.612;8.822;2023-05-07T00:29:10;2.42;;;1.70;;
66603;SDS011;53460;39.612;8.822;2023-05-07T00:31:36;1.75;;;1.60;;
66603;SDS011;53460;39.612;8.822;2023-05-07T00:34:02;1.40;;;1.30;;
66603;SDS011;53460;39.612;8.822;2023-05-07T00:36:28;2.22;;;1.70;;
66603;SDS011;53460;39.612;8.822;2023-05-07T00:38:54;2.45;;;1.60;;
66603;SDS011;53460;39.612;8.822;2023-05-07T00:41:22;2.88;;;1.98;;
66603;SDS011;53460;39.612;8.822;2023-05-07T00:43:47;2.05;;;1.60;;
66603;SDS011;53460;39.612;8.822;2023-05-07T00:46:13;2.00;;;1.88;;
66603;SDS011;53460;39.612;8.822;2023-05-07T00:48:41;2.20;;;1.58;;
66603;SDS011;53460;39.612;8.822;2023-05-07T00:51:07;1.80;;;1.70;;
66603;SDS011;53460;39.612;8.822;2023-05-07T00:53:33;3.40;;;1.58;;
66603;SDS011;53460;39.612;8.822;2023-05-07T00:55:59;1.90;;;1.60;;
66603;SDS011;53460;39.612;8.822;2023-05-07T00:58:26;2.08;;;1.70;;
66603;SDS011;53460;39.612;8.822;2023-05-07T01:00:52;1.77;;;1.67;;
66603;SDS011;53460;39.612;8.822;2023-05-07T01:03:17;1.98;;;1.77;;
66603;SDS011;53460;39.612;8.822;2023-05-07T01:05:43;1.92;;;1.52;;
66603;SDS011;53460;39.612;8.822;2023-05-07T01:08:11;2.35;;;1.73;;
66603;SDS011;53460;39.612;8.822;2023-05-07T01:10:38;2.95;;;1.95;;
66603;SDS011;53460;39.612;8.822;2023-05-07T01:13:11;2.42;;;1.60;;
66603;SDS011;53460;39.612;8.822;2023-05-07T01:15:40;4.32;;;2.28;;
66603;SDS011;53460;39.612;8.822;2023-05-07T01:18:06;2.08;;;1.77;;
66603;SDS011;53460;39.612;8.822;2023-05-07T01:20:34;2.30;;;1.85;;
66603;SDS011;53460;39.612;8.822;2023-05-07T01:23:00;3.75;;;1.85;;
66603;SDS011;53460;39.612;8.822;2023-05-07T01:25:26;2.25;;;1.48;;
66603;SDS011;53460;39.612;8.822;2023-05-07T01:27:56;1.67;;;1.58;;
66603;SDS011;53460;39.612;8.822;2023-05-07T01:30:26;1.70;;;1.60;;
66603;SDS011;53460;39.612;8.822;2023-05-07T01:32:58;1.60;;;1.45;;
66603;SDS011;53460;39.612;8.822;2023-05-07T01:35:27;2.08;;;1.50;;
66603;SDS011;53460;39.612;8.822;2023-05-07T01:37:55;1.77;;;1.40;;
66603;SDS011;53460;39.612;8.822;2023-05-07T01:40:22;2.25;;;1.48;;
66603;SDS011;53460;39.612;8.822;2023-05-07T01:42:49;2.03;;;1.60;;
66603;SDS011;53460;39.612;8.822;2023-05-07T01:45:15;1.58;;;1.40;;
66603;SDS011;53460;39.612;8.822;2023-05-07T01:47:41;2.35;;;1.50;;
66603;SDS011;53460;39.612;8.822;2023-05-07T01:50:08;1.70;;;1.60;;
66603;SDS011;53460;39.612;8.822;2023-05-07T01:52:36;1.88;;;1.70;;
66603;SDS011;53460;39.612;8.822;2023-05-07T01:55:03;2.00;;;1.50;;
66603;SDS011;53460;39.612;8.822;2023-05-07T01:57:29;1.90;;;1.48;;
66603;SDS011;53460;39.612;8.822;2023-05-07T01:59:54;1.85;;;1.73;;
66603;SDS011;53460;39.612;8.822;2023-05-07T02:02:20;2.25;;;1.30;;
66603;SDS011;53460;39.612;8.822;2023-05-07T02:04:46;1.45;;;1.35;;
66603;SDS011;53460;39.612;8.822;2023-05-07T02:07:14;3.72;;;1.60;;
66603;SDS011;53460;39.612;8.822;2023-05-07T02:09:39;1.52;;;1.42;;
66603;SDS011;53460;39.612;8.822;2023-05-07T02:12:05;1.73;;;1.33;;
66603;SDS011;53460;39.612;8.822;2023-05-07T02:14:31;1.55;;;1.45;;
66603;SDS011;53460;39.612;8.822;2023-05-07T02:16:57;3.28;;;1.40;;
66603;SDS011;53460;39.612;8.822;2023-05-07T02:19:23;1.50;;;1.40;;
66603;SDS011;53460;39.612;8.822;2023-05-07T02:21:48;1.52;;;1.42;;
66603;SDS011;53460;39.612;8.822;2023-05-07T02:24:15;2.72;;;1.40;;
66603;SDS011;53460;39.612;8.822;2023-05-07T02:26:40;1.73;;;1.50;;
66603;SDS011;53460;39.612;8.822;2023-05-07T02:29:06;1.42;;;1.33;;
66603;SDS011;53460;39.612;8.822;2023-05-07T02:31:32;2.28;;;1.40;;
66603;SDS011;53460;39.612;8.822;2023-05-07T02:34:00;1.60;;;1.50;;
66603;SDS011;53460;39.612;8.822;2023-05-07T02:36:26;1.60;;;1.20;;
66603;SDS011;53460;39.612;8.822;2023-05-07T02:39:18;1.58;;;1.48;;
66603;SDS011;53460;39.612;8.822;2023-05-07T02:41:44;1.60;;;1.50;;
66603;SDS011;53460;39.612;8.822;2023-05-07T02:44:09;1.85;;;1.35;;
66603;SDS011;53460;39.612;8.822;2023-05-07T02:46:36;1.40;;;1.30;;
66603;SDS011;53460;39.612;8.822;2023-05-07T02:49:07;2.33;;;1.60;;
66603;SDS011;53460;39.612;8.822;2023-05-07T02:51:32;1.70;;;1.40;;
66603;SDS011;53460;39.612;8.822;2023-05-07T02:54:01;1.98;;;1.40;;
66603;SDS011;53460;39.612;8.822;2023-05-07T02:56:28;1.63;;;1.52;;
66603;SDS011;53460;39.612;8.822;2023-05-07T02:58:53;1.42;;;1.20;;
66603;SDS011;53460;39.612;8.822;2023-05-07T03:01:22;1.98;;;1.70;;
66603;SDS011;53460;39.612;8.822;2023-05-07T03:03:57;1.52;;;1.40;;
66603;SDS011;53460;39.612;8.822;2023-05-07T03:06:22;1.75;;;1.50;;
66603;SDS011;53460;39.612;8.822;2023-05-07T03:08:48;4.35;;;1.40;;
66603;SDS011;53460;39.612;8.822;2023-05-07T03:11:14;1.92;;;1.40;;
66603;SDS011;53460;39.612;8.822;2023-05-07T03:13:40;1.40;;;1.30;;
66603;SDS011;53460;39.612;8.822;2023-05-07T03:16:06;2.63;;;1.35;;
66603;SDS011;53460;39.612;8.822;2023-05-07T03:18:32;1.58;;;1.40;;
66603;SDS011;53460;39.612;8.822;2023-05-07T03:20:57;2.33;;;1.58;;
66603;SDS011;53460;39.612;8.822;2023-05-07T03:23:23;1.95;;;1.50;;
66603;SDS011;53460;39.612;8.822;2023-05-07T03:25:49;2.25;;;1.48;;
66603;SDS011;53460;39.612;8.822;2023-05-07T03:28:14;1.77;;;1.67;;
66603;SDS011;53460;39.612;8.822;2023-05-07T03:30:49;1.50;;;1.25;;
66603;SDS011;53460;39.612;8.822;2023-05-07T03:33:15;1.40;;;1.30;;
66603;SDS011;53460;39.612;8.822;2023-05-07T03:35:41;1.80;;;1.65;;
66603;SDS011;53460;39.612;8.822;2023-05-07T03:38:07;1.70;;;1.60;;
66603;SDS011;53460;39.612;8.822;2023-05-07T03:40:34;2.13;;;1.42;;
66603;SDS011;53460;39.612;8.822;2023-05-07T03:43:02;1.73;;;1.63;;
66603;SDS011;53460;39.612;8.822;2023-05-07T03:45:30;1.60;;;1.50;;
66603;SDS011;53460;39.612;8.822;2023-05-07T03:48:15;1.30;;;1.20;;
66603;SDS011;53460;39.612;8.822;2023-05-07T03:50:42;1.83;;;1.73;;
66603;SDS011;53460;39.612;8.822;2023-05-07T03:53:07;1.63;;;1.52;;
66603;SDS011;53460;39.612;8.822;2023-05-07T03:55:37;1.73;;;1.58;;
66603;SDS011;53460;39.612;8.822;2023-05-07T03:58:03;1.88;;;1.63;;
66603;SDS011;53460;39.612;8.822;2023-05-07T04:00:29;1.67;;;1.58;;
66603;SDS011;53460;39.612;8.822;2023-05-07T04:02:59;1.60;;;1.48;;
66603;SDS011;53460;39.612;8.822;2023-05-07T04:05:27;1.73;;;1.63;;
66603;SDS011;53460;39.612;8.822;2023-05-07T04:07:58;2.17;;;1.88;;
66603;SDS011;53460;39.612;8.822;2023-05-07T04:10:29;2.10;;;2.00;;
66603;SDS011;53460;39.612;8.822;2023-05-07T04:12:56;2.38;;;2.17;;
66603;SDS011;53460;39.612;8.822;2023-05-07T04:15:24;2.50;;;2.28;;
66603;SDS011;53460;39.612;8.822;2023-05-07T04:17:49;3.85;;;2.05;;
66603;SDS011;53460;39.612;8.822;2023-05-07T04:20:18;2.30;;;2.10;;
66603;SDS011;53460;39.612;8.822;2023-05-07T04:22:48;3.25;;;1.70;;
66603;SDS011;53460;39.612;8.822;2023-05-07T04:25:13;4.07;;;2.13;;
66603;SDS011;53460;39.612;8.822;2023-05-07T04:27:41;1.88;;;1.73;;
66603;SDS011;53460;39.612;8.822;2023-05-07T04:30:07;1.95;;;1.77;;
66603;SDS011;53460;39.612;8.822;2023-05-07T04:32:36;1.70;;;1.60;;
66603;SDS011;53460;39.612;8.822;2023-05-07T04:35:03;2.05;;;1.80;;
66603;SDS011;53460;39.612;8.822;2023-05-07T04:37:31;1.95;;;1.75;;
66603;SDS011;53460;39.612;8.822;2023-05-07T04:39:57;1.83;;;1.73;;
66603;SDS011;53460;39.612;8.822;2023-05-07T04:42:23;1.88;;;1.77;;
66603;SDS011;53460;39.612;8.822;2023-05-07T04:44:52;1.73;;;1.63;;
66603;SDS011;53460;39.612;8.822;2023-05-07T04:47:19;2.10;;;1.90;;
66603;SDS011;53460;39.612;8.822;2023-05-07T04:49:44;2.00;;;1.80;;
66603;SDS011;53460;39.612;8.822;2023-05-07T04:52:11;2.72;;;2.22;;
66603;SDS011;53460;39.612;8.822;2023-05-07T04:54:36;2.22;;;1.95;;
66603;SDS011;53460;39.612;8.822;2023-05-07T04:57:03;3.97;;;1.95;;
66603;SDS011;53460;39.612;8.822;2023-05-07T04:59:30;5.50;;;1.98;;
66603;SDS011;53460;39.612;8.822;2023-05-07T05:01:56;2.10;;;2.00;;
66603;SDS011;53460;39.612;8.822;2023-05-07T05:04:23;3.45;;;1.70;;
66603;SDS011;53460;39.612;8.822;2023-05-07T05:06:49;1.77;;;1.67;;
66603;SDS011;53460;39.612;8.822;2023-05-07T05:09:15;2.03;;;1.92;;
66603;SDS011;53460;39.612;8.822;2023-05-07T05:11:41;2.50;;;1.90;;
66603;SDS011;53460;39.612;8.822;2023-05-07T05:14:07;4.72;;;1.73;;
66603;SDS011;53460;39.612;8.822;2023-05-07T05:16:33;1.50;;;1.40;;
66603;SDS011;53460;39.612;8.822;2023-05-07T05:18:59;1.80;;;1.70;;
66603;SDS011;53460;39.612;8.822;2023-05-07T05:21:25;1.92;;;1.83;;
66603;SDS011;53460;39.612;8.822;2023-05-07T05:23:55;1.90;;;1.80;;
66603;SDS011;53460;39.612;8.822;2023-05-07T05:26:23;1.92;;;1.60;;
66603;SDS011;53460;39.612;8.822;2023-05-07T05:28:50;1.67;;;1.58;;
66603;SDS011;53460;39.612;8.822;2023-05-07T05:31:19;3.13;;;1.70;;
66603;SDS011;53460;39.612;8.822;2023-05-07T05:33:45;1.73;;;1.48;;
66603;SDS011;53460;39.612;8.822;2023-05-07T05:36:11;1.90;;;1.80;;
66603;SDS011;53460;39.612;8.822;2023-05-07T05:38:38;2.38;;;1.80;;
66603;SDS011;53460;39.612;8.822;2023-05-07T05:41:05;3.20;;;1.80;;
66603;SDS011;53460;39.612;8.822;2023-05-07T05:43:31;1.95;;;1.75;;
66603;SDS011;53460;39.612;8.822;2023-05-07T05:45:57;3.80;;;1.90;;
66603;SDS011;53460;39.612;8.822;2023-05-07T05:48:23;2.00;;;1.73;;
66603;SDS011;53460;39.612;8.822;2023-05-07T05:50:49;2.00;;;1.73;;
66603;SDS011;53460;39.612;8.822;2023-05-07T05:53:17;2.25;;;1.92;;
66603;SDS011;53460;39.612;8.822;2023-05-07T05:55:43;2.20;;;1.80;;
66603;SDS011;53460;39.612;8.822;2023-05-07T05:58:10;2.42;;;1.70;;
66603;SDS011;53460;39.612;8.822;2023-05-07T06:00:40;2.80;;;1.70;;
66603;SDS011;53460;39.612;8.822;2023-05-07T06:03:06;3.20;;;1.80;;
66603;SDS011;53460;39.612;8.822;2023-05-07T06:05:33;2.22;;;1.90;;
66603;SDS011;53460;39.612;8.822;2023-05-07T06:07:59;1.90;;;1.80;;
66603;SDS011;53460;39.612;8.822;2023-05-07T06:10:29;3.30;;;1.92;;
66603;SDS011;53460;39.612;8.822;2023-05-07T06:12:55;3.60;;;2.38;;
66603;SDS011;53460;39.612;8.822;2023-05-07T06:15:21;3.97;;;2.10;;
66603;SDS011;53460;39.612;8.822;2023-05-07T06:17:47;2.70;;;2.00;;
66603;SDS011;53460;39.612;8.822;2023-05-07T06:20:14;2.50;;;1.88;;
66603;SDS011;53460;39.612;8.822;2023-05-07T06:22:40;2.08;;;1.98;;
66603;SDS011;53460;39.612;8.822;2023-05-07T06:25:07;1.80;;;1.70;;
66603;SDS011;53460;39.612;8.822;2023-05-07T06:27:33;2.83;;;2.00;;
66603;SDS011;53460;39.612;8.822;2023-05-07T06:29:58;2.10;;;1.90;;
66603;SDS011;53460;39.612;8.822;2023-05-07T06:32:24;7.15;;;1.75;;
66603;SDS011;53460;39.612;8.822;2023-05-07T06:34:50;2.95;;;2.20;;
66603;SDS011;53460;39.612;8.822;2023-05-07T06:37:16;3.15;;;2.85;;
66603;SDS011;53460;39.612;8.822;2023-05-07T06:39:51;2.20;;;2.00;;
66603;SDS011;53460;39.612;8.822;2023-05-07T06:42:16;2.60;;;1.83;;
66603;SDS011;53460;39.612;8.822;2023-05-07T06:44:45;2.67;;;2.10;;
66603;SDS011;53460;39.612;8.822;2023-05-07T06:47:13;5.18;;;2.13;;
66603;SDS011;53460;39.612;8.822;2023-05-07T06:49:39;2.72;;;2.53;;
66603;SDS011;53460;39.612;8.822;2023-05-07T06:52:05;3.50;;;2.80;;
66603;SDS011;53460;39.612;8.822;2023-05-07T06:54:31;3.15;;;2.60;;
66603;SDS011;53460;39.612;8.822;2023-05-07T06:56:57;3.30;;;2.22;;
66603;SDS011;53460;39.612;8.822;2023-05-07T06:59:25;2.80;;;2.30;;
66603;SDS011;53460;39.612;8.822;2023-05-07T07:01:51;2.33;;;1.60;;
66603;SDS011;53460;39.612;8.822;2023-05-07T07:04:18;3.60;;;1.65;;
66603;SDS011;53460;39.612;8.822;2023-05-07T07:09:19;2.35;;;1.50;;
66603;SDS011;53460;39.612;8.822;2023-05-07T07:11:45;1.40;;;1.30;;
66603;SDS011;53460;39.612;8.822;2023-05-07T07:14:11;1.73;;;1.45;;
66603;SDS011;53460;39.612;8.822;2023-05-07T07:16:44;2.17;;;1.40;;
66603;SDS011;53460;39.612;8.822;2023-05-07T07:19:12;3.10;;;1.30;;
66603;SDS011;53460;39.612;8.822;2023-05-07T07:21:41;2.40;;;1.55;;
66603;SDS011;53460;39.612;8.822;2023-05-07T07:24:07;4.32;;;2.20;;
66603;SDS011;53460;39.612;8.822;2023-05-07T07:26:34;3.28;;;1.55;;
66603;SDS011;53460;39.612;8.822;2023-05-07T07:28:59;3.40;;;3.10;;
66603;SDS011;53460;39.612;8.822;2023-05-07T07:31:25;2.70;;;2.38;;
66603;SDS011;53460;39.612;8.822;2023-05-07T07:33:51;4.03;;;3.50;;
66603;SDS011;53460;39.612;8.822;2023-05-07T07:36:17;3.03;;;2.72;;
66603;SDS011;53460;39.612;8.822;2023-05-07T07:38:42;6.05;;;3.70;;
66603;SDS011;53460;39.612;8.822;2023-05-07T07:41:08;2.00;;;1.80;;
66603;SDS011;53460;39.612;8.822;2023-05-07T07:43:34;1.80;;;1.58;;
66603;SDS011;53460;39.612;8.822;2023-05-07T07:46:01;1.30;;;1.20;;
66603;SDS011;53460;39.612;8.822;2023-05-07T07:48:27;1.33;;;1.25;;
66603;SDS011;53460;39.612;8.822;2023-05-07T07:50:53;3.35;;;2.00;;
66603;SDS011;53460;39.612;8.822;2023-05-07T07:53:19;4.03;;;2.20;;
66603;SDS011;53460;39.612;8.822;2023-05-07T07:55:45;1.33;;;1.30;;
66603;SDS011;53460;39.612;8.822;2023-05-07T07:58:15;1.73;;;1.63;;
66603;SDS011;53460;39.612;8.822;2023-05-07T08:00:41;2.42;;;1.55;;
66603;SDS011;53460;39.612;8.822;2023-05-07T08:03:09;3.00;;;1.63;;
66603;SDS011;53460;39.612;8.822;2023-05-07T08:05:38;1.92;;;1.67;;
66603;SDS011;53460;39.612;8.822;2023-05-07T08:08:05;2.95;;;2.28;;
66603;SDS011;53460;39.612;8.822;2023-05-07T08:10:32;1.52;;;1.42;;
66603;SDS011;53460;39.612;8.822;2023-05-07T08:13:08;2.58;;;1.35;;
66603;SDS011;53460;39.612;8.822;2023-05-07T08:15:35;1.58;;;1.20;;
66603;SDS011;53460;39.612;8.822;2023-05-07T08:18:02;4.18;;;1.60;;
66603;SDS011;53460;39.612;8.822;2023-05-07T08:20:28;1.85;;;1.75;;
66603;SDS011;53460;39.612;8.822;2023-05-07T08:22:55;3.33;;;1.58;;
66603;SDS011;53460;39.612;8.822;2023-05-07T08:25:21;1.60;;;1.48;;
66603;SDS011;53460;39.612;8.822;2023-05-07T08:27:47;2.58;;;1.50;;
66603;SDS011;53460;39.612;8.822;2023-05-07T08:30:13;4.43;;;1.92;;
66603;SDS011;53460;39.612;8.822;2023-05-07T08:32:39;3.55;;;2.95;;
66603;SDS011;53460;39.612;8.822;2023-05-07T08:35:05;3.88;;;2.47;;
66603;SDS011;53460;39.612;8.822;2023-05-07T08:37:31;3.40;;;2.00;;
66603;SDS011;53460;39.612;8.822;2023-05-07T08:39:58;6.25;;;3.80;;
66603;SDS011;53460;39.612;8.822;2023-05-07T08:42:28;3.83;;;2.67;;
66603;SDS011;53460;39.612;8.822;2023-05-07T08:44:56;4.78;;;1.85;;
66603;SDS011;53460;39.612;8.822;2023-05-07T08:47:24;3.25;;;2.40;;
66603;SDS011;53460;39.612;8.822;2023-05-07T08:49:58;3.17;;;2.50;;
66603;SDS011;53460;39.612;8.822;2023-05-07T08:52:24;2.25;;;2.00;;
66603;SDS011;53460;39.612;8.822;2023-05-07T08:54:51;2.60;;;2.00;;
66603;SDS011;53460;39.612;8.822;2023-05-07T08:57:18;3.00;;;2.70;;
66603;SDS011;53460;39.612;8.822;2023-05-07T08:59:45;7.32;;;2.05;;
66603;SDS011;53460;39.612;8.822;2023-05-07T09:02:11;3.85;;;2.45;;
66603;SDS011;53460;39.612;8.822;2023-05-07T09:04:38;3.65;;;1.88;;
66603;SDS011;53460;39.612;8.822;2023-05-07T09:07:04;2.17;;;1.98;;
66603;SDS011;53460;39.612;8.822;2023-05-07T09:09:33;3.30;;;1.58;;
66603;SDS011;53460;39.612;8.822;2023-05-07T09:12:00;2.15;;;1.50;;
66603;SDS011;53460;39.612;8.822;2023-05-07T09:14:30;8.35;;;1.85;;
66603;SDS011;53460;39.612;8.822;2023-05-07T09:16:56;2.10;;;1.90;;
66603;SDS011;53460;39.612;8.822;2023-05-07T09:19:22;8.70;;;3.45;;
66603;SDS011;53460;39.612;8.822;2023-05-07T09:21:57;1.73;;;1.50;;
66603;SDS011;53460;39.612;8.822;2023-05-07T09:24:24;1.60;;;1.40;;
66603;SDS011;53460;39.612;8.822;2023-05-07T09:26:50;1.00;;;0.90;;
66603;SDS011;53460;39.612;8.822;2023-05-07T09:29:16;3.60;;;1.50;;
66603;SDS011;53460;39.612;8.822;2023-05-07T09:31:42;1.60;;;1.50;;
66603;SDS011;53460;39.612;8.822;2023-05-07T09:34:11;1.73;;;1.63;;
66603;SDS011;53460;39.612;8.822;2023-05-07T09:36:40;4.32;;;2.60;;
66603;SDS011;53460;39.612;8.822;2023-05-07T09:39:05;4.20;;;2.63;;
66603;SDS011;53460;39.612;8.822;2023-05-07T09:41:31;2.20;;;2.00;;
66603;SDS011;53460;39.612;8.822;2023-05-07T09:44:09;3.13;;;2.10;;
66603;SDS011;53460;39.612;8.822;2023-05-07T09:46:44;2.70;;;2.00;;
66603;SDS011;53460;39.612;8.822;2023-05-07T09:49:23;12.60;;;2.80;;
66603;SDS011;53460;39.612;8.822;2023-05-07T09:51:56;3.33;;;1.52;;
66603;SDS011;53460;39.612;8.822;2023-05-07T09:54:24;1.65;;;1.50;;
66603;SDS011;53460;39.612;8.822;2023-05-07T09:56:53;3.22;;;2.28;;
66603;SDS011;53460;39.612;8.822;2023-05-07T09:59:22;3.03;;;2.20;;
66603;SDS011;53460;39.612;8.822;2023-05-07T10:01:49;8.05;;;1.92;;
66603;SDS011;53460;39.612;8.822;2023-05-07T10:04:17;2.38;;;1.63;;
66603;SDS011;53460;39.612;8.822;2023-05-07T10:06:45;3.00;;;2.78;;
66603;SDS011;53460;39.612;8.822;2023-05-07T10:09:12;4.45;;;3.83;;
66603;SDS011;53460;39.612;8.822;2023-05-07T10:11:39;3.72;;;1.85;;
66603;SDS011;53460;39.612;8.822;2023-05-07T10:14:06;3.22;;;2.08;;
66603;SDS011;53460;39.612;8.822;2023-05-07T10:16:34;3.78;;;1.50;;
66603;SDS011;53460;39.612;8.822;2023-05-07T10:19:04;6.32;;;1.45;;
66603;SDS011;53460;39.612;8.822;2023-05-07T10:21:33;6.05;;;2.53;;
66603;SDS011;53460;39.612;8.822;2023-05-07T10:24:04;6.22;;;2.10;;
66603;SDS011;53460;39.612;8.822;2023-05-07T10:26:51;1.50;;;1.40;;
66603;SDS011;53460;39.612;8.822;2023-05-07T10:34:50;4.20;;;1.60;;
66603;SDS011;53460;39.612;8.822;2023-05-07T10:37:20;5.50;;;1.75;;
66603;SDS011;53460;39.612;8.822;2023-05-07T10:39:46;2.22;;;1.85;;
66603;SDS011;53460;39.612;8.822;2023-05-07T10:42:13;6.88;;;1.88;;
66603;SDS011;53460;39.612;8.822;2023-05-07T10:44:45;2.67;;;1.83;;
66603;SDS011;53460;39.612;8.822;2023-05-07T10:47:19;1.67;;;1.42;;
66603;SDS011;53460;39.612;8.822;2023-05-07T10:52:24;1.65;;;1.00;;
66603;SDS011;53460;39.612;8.822;2023-05-07T10:57:45;1.42;;;1.23;;
66603;SDS011;53460;39.612;8.822;2023-05-07T11:03:05;2.50;;;1.73;;
66603;SDS011;53460;39.612;8.822;2023-05-07T11:05:38;1.60;;;1.40;;
66603;SDS011;53460;39.612;8.822;2023-05-07T11:08:24;2.55;;;1.48;;
66603;SDS011;53460;39.612;8.822;2023-05-07T11:11:07;2.13;;;1.00;;
66603;SDS011;53460;39.612;8.822;2023-05-07T11:13:48;2.10;;;1.60;;
66603;SDS011;53460;39.612;8.822;2023-05-07T11:16:44;2.38;;;2.17;;
66603;SDS011;53460;39.612;8.822;2023-05-07T11:25:23;1.98;;;1.77;;
66603;SDS011;53460;39.612;8.822;2023-05-07T11:28:11;3.42;;;1.27;;
66603;SDS011;53460;39.612;8.822;2023-05-07T11:30:51;3.53;;;1.38;;
66603;SDS011;53460;39.612;8.822;2023-05-07T11:33:19;1.98;;;1.20;;
66603;SDS011;53460;39.612;8.822;2023-05-07T11:35:47;1.60;;;1.50;;
66603;SDS011;53460;39.612;8.822;2023-05-07T11:38:15;2.25;;;1.10;;
66603;SDS011;53460;39.612;8.822;2023-05-07T11:40:49;3.00;;;1.50;;
66603;SDS011;53460;39.612;8.822;2023-05-07T11:43:16;2.58;;;1.23;;
66603;SDS011;53460;39.612;8.822;2023-05-07T11:45:42;1.48;;;1.10;;
66603;SDS011;53460;39.612;8.822;2023-05-07T11:48:08;1.25;;;1.08;;
66603;SDS011;53460;39.612;8.822;2023-05-07T11:50:33;1.25;;;1.15;;
66603;SDS011;53460;39.612;8.822;2023-05-07T11:52:59;1.65;;;1.40;;
66603;SDS011;53460;39.612;8.822;2023-05-07T11:55:24;3.15;;;1.20;;
66603;SDS011;53460;39.612;8.822;2023-05-07T11:57:51;2.10;;;1.00;;
66603;SDS011;53460;39.612;8.822;2023-05-07T12:00:17;4.63;;;1.02;;
66603;SDS011;53460;39.612;8.822;2023-05-07T12:02:44;2.95;;;1.10;;
66603;SDS011;53460;39.612;8.822;2023-05-07T12:05:10;1.10;;;1.00;;
66603;SDS011;53460;39.612;8.822;2023-05-07T12:07:36;1.30;;;1.20;;
66603;SDS011;53460;39.612;8.822;2023-05-07T12:10:05;1.20;;;1.10;;
66603;SDS011;53460;39.612;8.822;2023-05-07T12:12:37;1.00;;;1.00;;
66603;SDS011;53460;39.612;8.822;2023-05-07T12:15:05;1.75;;;1.10;;
66603;SDS011;53460;39.612;8.822;2023-05-07T12:17:31;1.90;;;1.20;;
66603;SDS011;53460;39.612;8.822;2023-05-07T12:19:57;1.48;;;1.05;;
66603;SDS011;53460;39.612;8.822;2023-05-07T12:22:23;3.47;;;1.15;;
66603;SDS011;53460;39.612;8.822;2023-05-07T12:24:49;1.48;;;1.00;;
66603;SDS011;53460;39.612;8.822;2023-05-07T12:27:22;1.27;;;1.13;;
66603;SDS011;53460;39.612;8.822;2023-05-07T12:29:48;2.38;;;1.60;;
66603;SDS011;53460;39.612;8.822;2023-05-07T12:32:15;4.13;;;1.50;;
66603;SDS011;53460;39.612;8.822;2023-05-07T12:34:42;6.05;;;1.50;;
66603;SDS011;53460;39.612;8.822;2023-05-07T12:37:12;1.70;;;1.40;;
66603;SDS011;53460;39.612;8.822;2023-05-07T12:39:38;1.45;;;1.27;;
66603;SDS011;53460;39.612;8.822;2023-05-07T12:42:09;1.65;;;1.40;;
66603;SDS011;53460;39.612;8.822;2023-05-07T12:44:40;3.13;;;1.92;;
66603;SDS011;53460;39.612;8.822;2023-05-07T12:47:07;4.43;;;1.90;;
66603;SDS011;53460;39.612;8.822;2023-05-07T12:49:34;2.15;;;1.77;;
66603;SDS011;53460;39.612;8.822;2023-05-07T12:52:02;3.13;;;1.60;;
66603;SDS011;53460;39.612;8.822;2023-05-07T12:54:31;1.63;;;1.50;;
66603;SDS011;53460;39.612;8.822;2023-05-07T12:57:09;2.60;;;2.10;;
66603;SDS011;53460;39.612;8.822;2023-05-07T12:59:36;2.67;;;1.60;;
66603;SDS011;53460;39.612;8.822;2023-05-07T13:02:03;3.45;;;1.30;;
66603;SDS011;53460;39.612;8.822;2023-05-07T13:04:29;1.48;;;1.23;;
66603;SDS011;53460;39.612;8.822;2023-05-07T13:06:55;1.80;;;1.40;;
66603;SDS011;53460;39.612;8.822;2023-05-07T13:09:20;4.25;;;1.35;;
66603;SDS011;53460;39.612;8.822;2023-05-07T13:11:46;2.28;;;1.10;;
66603;SDS011;53460;39.612;8.822;2023-05-07T13:14:12;6.88;;;1.38;;
66603;SDS011;53460;39.612;8.822;2023-05-07T13:16:37;1.42;;;1.23;;
66603;SDS011;53460;39.612;8.822;2023-05-07T13:19:03;5.07;;;1.35;;
66603;SDS011;53460;39.612;8.822;2023-05-07T13:21:29;2.35;;;1.58;;
66603;SDS011;53460;39.612;8.822;2023-05-07T13:23:57;2.60;;;1.52;;
66603;SDS011;53460;39.612;8.822;2023-05-07T13:26:23;1.65;;;1.20;;
66603;SDS011;53460;39.612;8.822;2023-05-07T13:28:49;1.95;;;1.35;;
66603;SDS011;53460;39.612;8.822;2023-05-07T13:31:16;6.85;;;1.38;;
66603;SDS011;53460;39.612;8.822;2023-05-07T13:33:42;3.45;;;1.25;;
66603;SDS011;53460;39.612;8.822;2023-05-07T13:36:08;4.00;;;1.10;;
66603;SDS011;53460;39.612;8.822;2023-05-07T13:38:34;2.05;;;1.30;;
66603;SDS011;53460;39.612;8.822;2023-05-07T13:41:00;0.88;;;0.88;;
66603;SDS011;53460;39.612;8.822;2023-05-07T13:43:26;2.75;;;1.20;;
66603;SDS011;53460;39.612;8.822;2023-05-07T13:45:51;2.25;;;1.10;;
66603;SDS011;53460;39.612;8.822;2023-05-07T13:48:17;1.23;;;1.13;;
66603;SDS011;53460;39.612;8.822;2023-05-07T13:50:43;2.22;;;1.15;;
66603;SDS011;53460;39.612;8.822;2023-05-07T13:53:08;2.47;;;1.27;;
66603;SDS011;53460;39.612;8.822;2023-05-07T13:55:34;4.05;;;1.38;;
66603;SDS011;53460;39.612;8.822;2023-05-07T13:58:00;1.33;;;1.00;;
66603;SDS011;53460;39.612;8.822;2023-05-07T14:00:28;2.20;;;1.20;;
66603;SDS011;53460;39.612;8.822;2023-05-07T14:02:54;5.72;;;1.15;;
66603;SDS011;53460;39.612;8.822;2023-05-07T14:05:21;2.30;;;1.10;;
66603;SDS011;53460;39.612;8.822;2023-05-07T14:07:49;1.52;;;1.42;;
66603;SDS011;53460;39.612;8.822;2023-05-07T14:10:17;1.83;;;1.20;;
66603;SDS011;53460;39.612;8.822;2023-05-07T14:12:43;4.10;;;1.17;;
66603;SDS011;53460;39.612;8.822;2023-05-07T14:15:12;3.45;;;1.25;;
66603;SDS011;53460;39.612;8.822;2023-05-07T14:17:38;1.25;;;1.10;;
66603;SDS011;53460;39.612;8.822;2023-05-07T14:20:04;3.60;;;1.23;;
66603;SDS011;53460;39.612;8.822;2023-05-07T14:22:31;2.33;;;0.90;;
66603;SDS011;53460;39.612;8.822;2023-05-07T14:24:57;4.05;;;0.93;;
66603;SDS011;53460;39.612;8.822;2023-05-07T14:27:22;2.05;;;0.98;;
66603;SDS011;53460;39.612;8.822;2023-05-07T14:29:48;1.52;;;1.20;;
66603;SDS011;53460;39.612;8.822;2023-05-07T14:32:17;2.15;;;1.10;;
66603;SDS011;53460;39.612;8.822;2023-05-07T14:34:43;8.02;;;1.10;;
66603;SDS011;53460;39.612;8.822;2023-05-07T14:37:10;1.90;;;1.10;;
66603;SDS011;53460;39.612;8.822;2023-05-07T14:39:35;1.42;;;0.98;;
66603;SDS011;53460;39.612;8.822;2023-05-07T14:42:01;2.55;;;1.10;;
66603;SDS011;53460;39.612;8.822;2023-05-07T14:44:27;2.90;;;0.95;;
66603;SDS011;53460;39.612;8.822;2023-05-07T14:46:53;1.15;;;1.00;;
66603;SDS011;53460;39.612;8.822;2023-05-07T14:49:19;1.42;;;1.17;;
66603;SDS011;53460;39.612;8.822;2023-05-07T14:51:45;1.38;;;1.00;;
66603;SDS011;53460;39.612;8.822;2023-05-07T14:54:15;2.35;;;1.25;;
66603;SDS011;53460;39.612;8.822;2023-05-07T14:56:41;1.65;;;1.15;;
66603;SDS011;53460;39.612;8.822;2023-05-07T14:59:07;1.38;;;1.00;;
66603;SDS011;53460;39.612;8.822;2023-05-07T15:01:37;1.30;;;0.98;;
66603;SDS011;53460;39.612;8.822;2023-05-07T15:04:03;3.78;;;2.38;;
66603;SDS011;53460;39.612;8.822;2023-05-07T15:06:30;1.15;;;1.00;;
66603;SDS011;53460;39.612;8.822;2023-05-07T15:08:56;2.08;;;1.13;;
66603;SDS011;53460;39.612;8.822;2023-05-07T15:11:22;7.25;;;1.00;;
66603;SDS011;53460;39.612;8.822;2023-05-07T15:13:47;1.73;;;0.90;;